sensor_id;sensor_type;location;lat;lon;timestamp;pressure;altitude;pressure_sealevel;temperature;humidity
12763;BME280;6445;52.490;13.378;2023-08-07T00:02:01;61880.72;;;-146.10;100.00
12763;BME280;6445;52.490;13.378;2023-08-07T00:04:26;61954.91;;;-146.10;100.00
12763;BME280;6445;52.490;13.378;2023-08-07T00:06:52;62003.03;;;-146.10;100.00
12763;BME280;6445;52.490;13.378;2023-08-07T00:09:17;62205.63;;;-146.10;100.00
12763;BME280;6445;52.490;13.378;2023-08-07T00:11:42;64145.53;;;-146.10;100.00
12763;BME280;6445;52.490;13.378;2023-08-07T00:14:08;64954.28;;;-146.10;100.00
12763;BME280;6445;52.490;13.378;2023-08-07T00:16:33;65996.09;;;-146.10;100.00
12763;BME280;6445;52.490;13.378;2023-08-07T00:18:58;65594.59;;;-146.10;100.00
12763;BME280;6445;52.490;13.378;2023-08-07T00:21:23;67259.03;;;-146.10;100.00
12763;BME280;6445;52.490;13.378;2023-08-07T00:23:49;65319.59;;;-146.10;100.00
12763;BME280;6445;52.490;13.378;2023-08-07T00:26:15;63666.00;;;-146.10;100.00
12763;BME280;6445;52.490;13.378;2023-08-07T00:28:40;66008.13;;;-146.10;100.00
12763;BME280;6445;52.490;13.378;2023-08-07T00:31:05;64540.88;;;-146.10;100.00
12763;BME280;6445;52.490;13.378;2023-08-07T00:33:31;65425.97;;;-146.10;100.00
12763;BME280;6445;52.490;13.378;2023-08-07T00:35:56;66498.00;;;-146.10;100.00
12763;BME280;6445;52.490;13.378;2023-08-07T00:38:21;66269.13;;;-146.10;100.00
12763;BME280;6445;52.490;13.378;2023-08-07T00:40:46;66126.56;;;-146.10;100.00
12763;BME280;6445;52.490;13.378;2023-08-07T00:43:12;67347.41;;;-146.10;100.00
12763;BME280;6445;52.490;13.378;2023-08-07T00:45:41;67471.91;;;-146.10;100.00
12763;BME280;6445;52.490;13.378;2023-08-07T00:48:07;66993.97;;;-146.10;100.00
12763;BME280;6445;52.490;13.378;2023-08-07T00:50:32;65992.06;;;-146.10;100.00
12763;BME280;6445;52.490;13.378;2023-08-07T00:52:58;66166.72;;;-146.10;100.00
12763;BME280;6445;52.490;13.378;2023-08-07T00:55:24;65929.84;;;-146.10;100.00
12763;BME280;6445;52.490;13.378;2023-08-07T00:57:49;65799.34;;;-146.10;100.00
12763;BME280;6445;52.490;13.378;2023-08-07T01:00:15;63545.63;;;-146.10;100.00
12763;BME280;6445;52.490;13.378;2023-08-07T01:02:41;60930.22;;;-146.10;100.00
12763;BME280;6445;52.490;13.378;2023-08-07T01:05:07;60687.63;;;-146.10;100.00
12763;BME280;6445;52.490;13.378;2023-08-07T01:07:32;59883.75;;;-146.10;100.00
12763;BME280;6445;52.490;13.378;2023-08-07T01:09:57;59595.13;;;-146.10;100.00
12763;BME280;6445;52.490;13.378;2023-08-07T01:12:33;59747.44;;;-146.10;100.00
12763;BME280;6445;52.490;13.378;2023-08-07T01:15:12;62003.03;;;-146.10;100.00
12763;BME280;6445;52.490;13.378;2023-08-07T01:17:40;61076.59;;;-146.10;100.00
12763;BME280;6445;52.490;13.378;2023-08-07T01:20:07;59763.47;;;-146.10;100.00
12763;BME280;6445;52.490;13.378;2023-08-07T01:22:36;58613.13;;;-146.10;100.00
12763;BME280;6445;52.490;13.378;2023-08-07T01:25:01;57613.34;;;-146.10;100.00
12763;BME280;6445;52.490;13.378;2023-08-07T01:27:36;55712.63;;;-146.10;100.00
12763;BME280;6445;52.490;13.378;2023-08-07T01:30:17;57254.75;;;-146.10;100.00
12763;BME280;6445;52.490;13.378;2023-08-07T01:35:33;58448.81;;;-146.10;100.00
12763;BME280;6445;52.490;13.378;2023-08-07T01:38:00;58526.94;;;-146.10;100.00
12763;BME280;6445;52.490;13.378;2023-08-07T01:40:27;59304.50;;;-146.10;100.00
12763;BME280;6445;52.490;13.378;2023-08-07T01:42:53;59456.81;;;-146.10;100.00
12763;BME280;6445;52.490;13.378;2023-08-07T01:45:25;60258.59;;;-146.10;100.00
12763;BME280;6445;52.490;13.378;2023-08-07T01:47:51;61036.50;;;-146.10;100.00
12763;BME280;6445;52.490;13.378;2023-08-07T01:50:21;62191.56;;;-146.10;100.00
12763;BME280;6445;52.490;13.378;2023-08-07T01:52:47;64322.13;;;-146.10;100.00
12763;BME280;6445;52.490;13.378;2023-08-07T01:55:16;65399.88;;;-146.10;100.00
12763;BME280;6445;52.490;13.378;2023-08-07T01:57:42;65576.53;;;-146.10;100.00
12763;BME280;6445;52.490;13.378;2023-08-07T02:00:07;65383.81;;;-146.10;100.00
12763;BME280;6445;52.490;13.378;2023-08-07T02:02:34;65566.50;;;-146.10;100.00
12763;BME280;6445;52.490;13.378;2023-08-07T02:04:59;64677.34;;;-146.10;100.00
12763;BME280;6445;52.490;13.378;2023-08-07T02:07:24;65434.00;;;-146.10;100.00
12763;BME280;6445;52.490;13.378;2023-08-07T02:09:49;65155.00;;;-146.10;100.00
12763;BME280;6445;52.490;13.378;2023-08-07T02:12:15;64492.72;;;-146.10;100.00
12763;BME280;6445;52.490;13.378;2023-08-07T02:14:40;65688.94;;;-146.10;100.00
12763;BME280;6445;52.490;13.378;2023-08-07T02:17:06;65859.56;;;-146.10;100.00
12763;BME280;6445;52.490;13.378;2023-08-07T02:19:31;66757.03;;;-146.10;100.00
12763;BME280;6445;52.490;13.378;2023-08-07T02:21:57;65957.94;;;-146.10;100.00
12763;BME280;6445;52.490;13.378;2023-08-07T02:24:22;66640.56;;;-146.10;100.00
12763;BME280;6445;52.490;13.378;2023-08-07T02:26:47;66016.16;;;-146.10;100.00
12763;BME280;6445;52.490;13.378;2023-08-07T02:29:12;66317.31;;;-146.10;100.00
12763;BME280;6445;52.490;13.378;2023-08-07T02:31:38;66445.81;;;-146.10;100.00
12763;BME280;6445;52.490;13.378;2023-08-07T02:34:03;67192.78;;;-146.10;100.00
12763;BME280;6445;52.490;13.378;2023-08-07T02:36:28;67178.72;;;-146.10;100.00
12763;BME280;6445;52.490;13.378;2023-08-07T02:38:53;67359.44;;;-146.10;100.00
12763;BME280;6445;52.490;13.378;2023-08-07T02:41:19;66881.50;;;-146.10;100.00
12763;BME280;6445;52.490;13.378;2023-08-07T02:43:44;66140.63;;;-146.10;100.00
12763;BME280;6445;52.490;13.378;2023-08-07T02:46:09;65604.63;;;-146.10;100.00
12763;BME280;6445;52.490;13.378;2023-08-07T02:48:34;64805.78;;;-146.10;100.00
12763;BME280;6445;52.490;13.378;2023-08-07T02:51:00;64019.13;;;-146.10;100.00
12763;BME280;6445;52.490;13.378;2023-08-07T02:53:25;63940.88;;;-146.10;100.00
12763;BME280;6445;52.490;13.378;2023-08-07T02:55:50;63682.03;;;-146.10;100.00
12763;BME280;6445;52.490;13.378;2023-08-07T02:58:15;64095.38;;;-146.10;100.00
12763;BME280;6445;52.490;13.378;2023-08-07T03:00:41;64147.56;;;-146.10;100.00
12763;BME280;6445;52.490;13.378;2023-08-07T03:03:06;64175.66;;;-146.10;100.00
12763;BME280;6445;52.490;13.378;2023-08-07T03:05:31;64910.16;;;-146.10;100.00
12763;BME280;6445;52.490;13.378;2023-08-07T03:07:56;65652.81;;;-146.10;100.00
12763;BME280;6445;52.490;13.378;2023-08-07T03:10:22;66305.25;;;-146.10;100.00
12763;BME280;6445;52.490;13.378;2023-08-07T03:12:47;67016.06;;;-146.10;100.00
12763;BME280;6445;52.490;13.378;2023-08-07T03:15:12;66520.09;;;-146.10;100.00
12763;BME280;6445;52.490;13.378;2023-08-07T03:17:37;66710.84;;;-146.10;100.00
12763;BME280;6445;52.490;13.378;2023-08-07T03:20:03;66528.13;;;-146.10;100.00
12763;BME280;6445;52.490;13.378;2023-08-07T03:22:29;66439.78;;;-146.10;100.00
12763;BME280;6445;52.490;13.378;2023-08-07T03:24:54;66632.53;;;-146.10;100.00
12763;BME280;6445;52.490;13.378;2023-08-07T03:27:19;67540.19;;;-146.10;100.00
12763;BME280;6445;52.490;13.378;2023-08-07T03:29:45;67293.19;;;-146.10;100.00
12763;BME280;6445;52.490;13.378;2023-08-07T03:32:10;67224.91;;;-146.10;100.00
12763;BME280;6445;52.490;13.378;2023-08-07T03:34:35;66937.75;;;-146.10;100.00
12763;BME280;6445;52.490;13.378;2023-08-07T03:37:01;67518.09;;;-146.10;100.00
12763;BME280;6445;52.490;13.378;2023-08-07T03:39:26;68008.16;;;-146.10;100.00
12763;BME280;6445;52.490;13.378;2023-08-07T03:41:51;67803.28;;;-146.10;100.00
12763;BME280;6445;52.490;13.378;2023-08-07T03:44:16;67006.00;;;-146.10;100.00
12763;BME280;6445;52.490;13.378;2023-08-07T03:46:42;66459.84;;;-146.10;100.00
12763;BME280;6445;52.490;13.378;2023-08-07T03:49:07;66504.03;;;-146.10;100.00
12763;BME280;6445;52.490;13.378;2023-08-07T03:51:32;66455.84;;;-146.10;100.00
12763;BME280;6445;52.490;13.378;2023-08-07T03:53:57;65737.13;;;-146.10;100.00
12763;BME280;6445;52.490;13.378;2023-08-07T03:56:23;65538.38;;;-146.10;100.00
12763;BME280;6445;52.490;13.378;2023-08-07T03:58:48;64426.47;;;-146.10;100.00
12763;BME280;6445;52.490;13.378;2023-08-07T04:01:15;63866.63;;;-146.10;100.00
12763;BME280;6445;52.490;13.378;2023-08-07T04:03:40;63730.19;;;-146.10;100.00
12763;BME280;6445;52.490;13.378;2023-08-07T04:06:05;63226.63;;;-146.10;100.00
12763;BME280;6445;52.490;13.378;2023-08-07T04:08:31;62833.44;;;-146.10;100.00
12763;BME280;6445;52.490;13.378;2023-08-07T04:11:05;62217.66;;;-146.10;100.00
12763;BME280;6445;52.490;13.378;2023-08-07T04:13:31;61658.09;;;-146.10;100.00
12763;BME280;6445;52.490;13.378;2023-08-07T04:15:57;60447.06;;;-146.10;100.00
12763;BME280;6445;52.490;13.378;2023-08-07T04:18:22;60074.19;;;-146.10;100.00
12763;BME280;6445;52.490;13.378;2023-08-07T04:20:54;58655.19;;;-146.10;100.00
12763;BME280;6445;52.490;13.378;2023-08-07T04:23:20;57483.13;;;-146.10;100.00
12763;BME280;6445;52.490;13.378;2023-08-07T04:25:47;55962.94;;;-146.10;100.00
12763;BME280;6445;52.490;13.378;2023-08-07T04:28:12;55230.09;;;-146.10;100.00
12763;BME280;6445;52.490;13.378;2023-08-07T04:30:37;54159.09;;;-146.10;100.00
12763;BME280;6445;52.490;13.378;2023-08-07T04:33:02;54253.16;;;-146.10;100.00
12763;BME280;6445;52.490;13.378;2023-08-07T04:35:28;53898.88;;;-146.10;100.00
12763;BME280;6445;52.490;13.378;2023-08-07T04:37:53;51657.91;;;-146.10;100.00
12763;BME280;6445;52.490;13.378;2023-08-07T04:40:18;51327.84;;;-146.10;100.00
12763;BME280;6445;52.490;13.378;2023-08-07T04:42:44;49962.00;;;-146.10;100.00
12763;BME280;6445;52.490;13.378;2023-08-07T04:45:09;45949.09;;;-146.10;100.00
12763;BME280;6445;52.490;13.378;2023-08-07T04:47:34;46780.13;;;-146.10;100.00
12763;BME280;6445;52.490;13.378;2023-08-07T04:50:00;46382.56;;;-146.10;100.00
12763;BME280;6445;52.490;13.378;2023-08-07T04:52:25;46352.59;;;-146.10;100.00
12763;BME280;6445;52.490;13.378;2023-08-07T04:54:50;43403.19;;;-146.10;100.00
12763;BME280;6445;52.490;13.378;2023-08-07T04:57:15;38671.19;;;-146.10;100.00
12763;BME280;6445;52.490;13.378;2023-08-07T04:59:41;32141.13;;;-146.10;100.00
12763;BME280;6445;52.490;13.378;2023-08-07T05:02:06;27476.34;;;-146.10;100.00
12763;BME280;6445;52.490;13.378;2023-08-07T05:04:31;28009.19;;;-146.10;100.00
12763;BME280;6445;52.490;13.378;2023-08-07T05:06:56;24600.69;;;-146.10;100.00
12763;BME280;6445;52.490;13.378;2023-08-07T05:09:22;27371.00;;;-146.10;100.00
12763;BME280;6445;52.490;13.378;2023-08-07T05:11:47;28241.84;;;-146.10;100.00
12763;BME280;6445;52.490;13.378;2023-08-07T05:14:13;32702.47;;;-146.10;100.00
12763;BME280;6445;52.490;13.378;2023-08-07T05:16:38;34598.09;;;-146.10;100.00
12763;BME280;6445;52.490;13.378;2023-08-07T05:19:04;36731.75;;;-146.10;100.00
12763;BME280;6445;52.490;13.378;2023-08-07T05:21:29;31269.41;;;-146.10;100.00
12763;BME280;6445;52.490;13.378;2023-08-07T05:23:54;29852.81;;;-146.10;100.00
12763;BME280;6445;52.490;13.378;2023-08-07T05:26:21;28025.09;;;-146.10;100.00
12763;BME280;6445;52.490;13.378;2023-08-07T05:28:46;29958.25;;;-146.10;100.00
12763;BME280;6445;52.490;13.378;2023-08-07T05:31:11;26516.25;;;-146.10;100.00
12763;BME280;6445;52.490;13.378;2023-08-07T05:33:37;25480.84;;;-146.10;100.00
12763;BME280;6445;52.490;13.378;2023-08-07T05:36:02;24541.09;;;-146.10;100.00
12763;BME280;6445;52.490;13.378;2023-08-07T05:38:27;22904.50;;;-146.10;100.00
12763;BME280;6445;52.490;13.378;2023-08-07T05:40:52;20693.03;;;-146.10;100.00
12763;BME280;6445;52.490;13.378;2023-08-07T05:43:18;17899.72;;;-146.10;100.00
12763;BME280;6445;52.490;13.378;2023-08-07T05:45:43;12826.09;;;-146.10;100.00
12763;BME280;6445;52.490;13.378;2023-08-07T05:48:10;12065.63;;;-146.10;100.00
12763;BME280;6445;52.490;13.378;2023-08-07T05:50:35;11558.72;;;-146.10;100.00
12763;BME280;6445;52.490;13.378;2023-08-07T05:53:00;9025.22;;;-146.10;100.00
12763;BME280;6445;52.490;13.378;2023-08-07T05:55:25;8518.72;;;-146.10;100.00
12763;BME280;6445;52.490;13.378;2023-08-07T05:57:51;6746.47;;;-146.10;100.00
12763;BME280;6445;52.490;13.378;2023-08-07T06:00:16;6240.28;;;-146.10;100.00
12763;BME280;6445;52.490;13.378;2023-08-07T06:02:42;5228.06;;;-146.10;100.00
12763;BME280;6445;52.490;13.378;2023-08-07T06:05:08;5228.06;;;-146.10;100.00
12763;BME280;6445;52.490;13.378;2023-08-07T06:07:34;6493.38;;;-146.10;100.00
12763;BME280;6445;52.490;13.378;2023-08-07T06:09:59;6493.38;;;-146.10;100.00
12763;BME280;6445;52.490;13.378;2023-08-07T06:12:25;5987.19;;;-146.10;100.00
12763;BME280;6445;52.490;13.378;2023-08-07T06:14:50;11051.88;;;-146.10;100.00
12763;BME280;6445;52.490;13.378;2023-08-07T06:17:15;6746.47;;;-146.10;100.00
12763;BME280;6445;52.490;13.378;2023-08-07T06:19:40;6746.47;;;-146.10;100.00
12763;BME280;6445;52.490;13.378;2023-08-07T06:22:06;6999.59;;;-146.10;100.00
12763;BME280;6445;52.490;13.378;2023-08-07T06:24:31;8518.72;;;-146.10;100.00
12763;BME280;6445;52.490;13.378;2023-08-07T06:26:56;8265.50;;;-146.10;100.00
12763;BME280;6445;52.490;13.378;2023-08-07T06:29:21;12319.09;;;-146.10;100.00
12763;BME280;6445;52.490;13.378;2023-08-07T06:31:47;9531.78;;;-146.10;100.00
12763;BME280;6445;52.490;13.378;2023-08-07T06:34:12;8771.97;;;-146.10;100.00
12763;BME280;6445;52.490;13.378;2023-08-07T06:36:37;13333.16;;;-146.10;100.00
12763;BME280;6445;52.490;13.378;2023-08-07T06:39:02;13586.72;;;-146.10;100.00
12763;BME280;6445;52.490;13.378;2023-08-07T06:41:28;13586.72;;;-146.10;100.00
12763;BME280;6445;52.490;13.378;2023-08-07T06:43:54;18574.06;;;-146.10;100.00
12763;BME280;6445;52.490;13.378;2023-08-07T06:46:20;18427.28;;;-146.10;100.00
12763;BME280;6445;52.490;13.378;2023-08-07T06:48:49;13333.16;;;-146.10;100.00
12763;BME280;6445;52.490;13.378;2023-08-07T06:51:14;23498.28;;;-146.10;100.00
12763;BME280;6445;52.490;13.378;2023-08-07T06:53:41;30288.47;;;-146.10;100.00
12763;BME280;6445;52.490;13.378;2023-08-07T06:56:07;26138.63;;;-146.10;100.00
12763;BME280;6445;52.490;13.378;2023-08-07T06:58:32;28581.88;;;-146.10;100.00
12763;BME280;6445;52.490;13.378;2023-08-07T07:00:57;31124.16;;;-146.10;100.00
12763;BME280;6445;52.490;13.378;2023-08-07T07:03:23;32698.50;;;-146.10;100.00
12763;BME280;6445;52.490;13.378;2023-08-07T07:05:49;30943.06;;;-146.10;100.00
12763;BME280;6445;52.490;13.378;2023-08-07T07:08:14;33411.22;;;-146.10;100.00
12763;BME280;6445;52.490;13.378;2023-08-07T07:10:40;31307.22;;;-146.10;100.00
12763;BME280;6445;52.490;13.378;2023-08-07T07:13:05;34185.84;;;-146.10;100.00
12763;BME280;6445;52.490;13.378;2023-08-07T07:15:31;35733.50;;;-146.10;100.00
12763;BME280;6445;52.490;13.378;2023-08-07T07:17:56;34586.13;;;-146.10;100.00
12763;BME280;6445;52.490;13.378;2023-08-07T07:20:21;36823.44;;;-146.10;100.00
12763;BME280;6445;52.490;13.378;2023-08-07T07:22:47;38639.28;;;-146.10;100.00
12763;BME280;6445;52.490;13.378;2023-08-07T07:25:12;39512.66;;;-146.10;100.00
12763;BME280;6445;52.490;13.378;2023-08-07T07:27:39;44527.19;;;-146.10;100.00
12763;BME280;6445;52.490;13.378;2023-08-07T07:30:05;46913.97;;;-146.10;99.16
12763;BME280;6445;52.490;13.378;2023-08-07T07:32:30;46234.75;;;-146.10;100.00
12763;BME280;6445;52.490;13.378;2023-08-07T07:34:55;47655.28;;;-146.10;98.17
12763;BME280;6445;52.490;13.378;2023-08-07T07:37:21;45533.66;;;-146.10;100.00
12763;BME280;6445;52.490;13.378;2023-08-07T07:39:46;46292.69;;;-146.10;100.00
12763;BME280;6445;52.490;13.378;2023-08-07T07:42:11;46939.97;;;-146.10;99.81
12763;BME280;6445;52.490;13.378;2023-08-07T07:44:37;44054.00;;;-146.10;100.00
12763;BME280;6445;52.490;13.378;2023-08-07T07:47:03;47735.22;;;-146.10;97.40
12763;BME280;6445;52.490;13.378;2023-08-07T07:49:30;48050.97;;;-146.10;97.42
12763;BME280;6445;52.490;13.378;2023-08-07T07:51:55;49076.31;;;-146.10;95.80
12763;BME280;6445;52.490;13.378;2023-08-07T07:54:20;49206.25;;;-146.10;95.20
12763;BME280;6445;52.490;13.378;2023-08-07T07:56:46;49772.03;;;-146.10;93.77
12763;BME280;6445;52.490;13.378;2023-08-07T07:59:12;49830.03;;;-146.10;92.95
12763;BME280;6445;52.490;13.378;2023-08-07T08:01:37;51017.84;;;-146.10;85.53
12763;BME280;6445;52.490;13.378;2023-08-07T08:04:03;51471.88;;;-146.10;81.99
12763;BME280;6445;52.490;13.378;2023-08-07T08:06:28;51389.88;;;-146.10;85.01
12763;BME280;6445;52.490;13.378;2023-08-07T08:08:53;50843.84;;;-146.10;89.90
12763;BME280;6445;52.490;13.378;2023-08-07T08:11:18;49572.13;;;-146.10;96.18
12763;BME280;6445;52.490;13.378;2023-08-07T08:13:43;49572.13;;;-146.10;94.81
12763;BME280;6445;52.490;13.378;2023-08-07T08:16:09;49644.09;;;-146.10;95.42
12763;BME280;6445;52.490;13.378;2023-08-07T08:18:34;45943.13;;;-146.10;100.00
12763;BME280;6445;52.490;13.378;2023-08-07T08:20:59;42076.00;;;-146.10;100.00
12763;BME280;6445;52.490;13.378;2023-08-07T08:23:24;39700.09;;;-146.10;100.00
12763;BME280;6445;52.490;13.378;2023-08-07T08:25:50;42249.59;;;-146.10;100.00
12763;BME280;6445;52.490;13.378;2023-08-07T08:28:17;41060.44;;;-146.10;100.00
12763;BME280;6445;52.490;13.378;2023-08-07T08:30:42;32095.34;;;-146.10;100.00
12763;BME280;6445;52.490;13.378;2023-08-07T08:33:07;27691.06;;;-146.10;100.00
12763;BME280;6445;52.490;13.378;2023-08-07T08:35:36;25037.78;;;-146.10;100.00
12763;BME280;6445;52.490;13.378;2023-08-07T08:38:01;31152.00;;;-146.10;100.00
12763;BME280;6445;52.490;13.378;2023-08-07T08:40:28;36562.38;;;-146.10;100.00
12763;BME280;6445;52.490;13.378;2023-08-07T08:42:55;40545.75;;;-146.10;100.00
12763;BME280;6445;52.490;13.378;2023-08-07T08:45:23;44662.97;;;-146.10;100.00
12763;BME280;6445;52.490;13.378;2023-08-07T08:47:51;44740.84;;;-146.10;100.00
12763;BME280;6445;52.490;13.378;2023-08-07T08:50:16;44331.50;;;-146.10;100.00
12763;BME280;6445;52.490;13.378;2023-08-07T08:52:43;46766.13;;;-146.10;99.33
12763;BME280;6445;52.490;13.378;2023-08-07T08:55:10;48674.53;;;-146.10;95.45
12763;BME280;6445;52.490;13.378;2023-08-07T08:57:37;50819.84;;;-146.10;87.11
12763;BME280;6445;52.490;13.378;2023-08-07T09:00:04;50735.84;;;-146.10;88.36
12763;BME280;6445;52.490;13.378;2023-08-07T09:02:41;51351.84;;;-146.10;84.13
12763;BME280;6445;52.490;13.378;2023-08-07T09:05:08;51067.84;;;-146.10;86.43
12763;BME280;6445;52.490;13.378;2023-08-07T09:07:33;51365.88;;;-146.10;83.16
12763;BME280;6445;52.490;13.378;2023-08-07T09:09:59;51849.94;;;-146.10;77.01
12763;BME280;6445;52.490;13.378;2023-08-07T09:12:26;52070.00;;;-146.10;73.44
12763;BME280;6445;52.490;13.378;2023-08-07T09:14:56;51857.94;;;-146.10;78.35
12763;BME280;6445;52.490;13.378;2023-08-07T09:17:28;50907.84;;;-146.10;90.10
12763;BME280;6445;52.490;13.378;2023-08-07T09:19:54;46138.88;;;-146.10;100.00
12763;BME280;6445;52.490;13.378;2023-08-07T09:22:19;35143.84;;;-146.10;100.00
12763;BME280;6445;52.490;13.378;2023-08-07T09:24:45;29349.56;;;-146.10;100.00
12763;BME280;6445;52.490;13.378;2023-08-07T09:27:11;34462.66;;;-146.10;100.00
12763;BME280;6445;52.490;13.378;2023-08-07T09:29:36;32485.50;;;-146.10;100.00
12763;BME280;6445;52.490;13.378;2023-08-07T09:32:17;31852.53;;;-146.10;100.00
12763;BME280;6445;52.490;13.378;2023-08-07T09:34:43;38669.19;;;-146.10;100.00
12763;BME280;6445;52.490;13.378;2023-08-07T09:37:09;44095.91;;;-146.10;100.00
12763;BME280;6445;52.490;13.378;2023-08-07T09:39:37;42099.94;;;-146.10;100.00
12763;BME280;6445;52.490;13.378;2023-08-07T09:42:03;45361.91;;;-146.10;100.00
12763;BME280;6445;52.490;13.378;2023-08-07T09:44:38;45054.34;;;-146.10;100.00
12763;BME280;6445;52.490;13.378;2023-08-07T09:47:14;45847.25;;;-146.10;100.00
12763;BME280;6445;52.490;13.378;2023-08-07T09:49:40;47075.81;;;-146.10;98.74
12763;BME280;6445;52.490;13.378;2023-08-07T09:52:07;47899.09;;;-146.10;97.58
12763;BME280;6445;52.490;13.378;2023-08-07T09:54:33;49636.09;;;-146.10;93.31
12763;BME280;6445;52.490;13.378;2023-08-07T09:56:59;49672.06;;;-146.10;92.60
12763;BME280;6445;52.490;13.378;2023-08-07T09:59:27;50619.88;;;-146.10;88.86
12763;BME280;6445;52.490;13.378;2023-08-07T10:01:53;48846.44;;;-146.10;96.29
12763;BME280;6445;52.490;13.378;2023-08-07T10:04:20;48210.84;;;-146.10;97.42
12763;BME280;6445;52.490;13.378;2023-08-07T10:06:46;48272.81;;;-146.10;96.54
12763;BME280;6445;52.490;13.378;2023-08-07T10:09:11;49778.03;;;-146.10;91.65
12763;BME280;6445;52.490;13.378;2023-08-07T10:11:38;50227.94;;;-146.10;90.14
12763;BME280;6445;52.490;13.378;2023-08-07T10:14:04;50209.94;;;-146.10;90.22
12763;BME280;6445;52.490;13.378;2023-08-07T10:16:30;50321.91;;;-146.10;88.72
12763;BME280;6445;52.490;13.378;2023-08-07T10:18:55;51035.84;;;-146.10;85.09
12763;BME280;6445;52.490;13.378;2023-08-07T10:21:22;50653.88;;;-146.10;88.30
12763;BME280;6445;52.490;13.378;2023-08-07T10:23:50;50511.88;;;-146.10;89.20
12763;BME280;6445;52.490;13.378;2023-08-07T10:26:18;50677.88;;;-146.10;87.71
12763;BME280;6445;52.490;13.378;2023-08-07T10:28:45;50513.88;;;-146.10;88.93
12763;BME280;6445;52.490;13.378;2023-08-07T10:31:10;50705.84;;;-146.10;87.46
12763;BME280;6445;52.490;13.378;2023-08-07T10:33:38;51177.84;;;-146.10;83.82
12763;BME280;6445;52.490;13.378;2023-08-07T10:36:08;51229.84;;;-146.10;83.31
12763;BME280;6445;52.490;13.378;2023-08-07T10:38:35;51033.84;;;-146.10;86.59
12763;BME280;6445;52.490;13.378;2023-08-07T10:41:08;51249.84;;;-146.10;84.33
12763;BME280;6445;52.490;13.378;2023-08-07T10:43:39;51061.84;;;-146.10;86.65
12763;BME280;6445;52.490;13.378;2023-08-07T10:46:06;51185.84;;;-146.10;84.98
12763;BME280;6445;52.490;13.378;2023-08-07T10:48:38;51121.84;;;-146.10;85.31
12763;BME280;6445;52.490;13.378;2023-08-07T10:51:04;51141.84;;;-146.10;85.23
12763;BME280;6445;52.490;13.378;2023-08-07T10:53:30;51315.84;;;-146.10;83.49
12763;BME280;6445;52.490;13.378;2023-08-07T10:55:56;51169.84;;;-146.10;85.27
12763;BME280;6445;52.490;13.378;2023-08-07T10:58:29;50685.88;;;-146.10;89.65
12763;BME280;6445;52.490;13.378;2023-08-07T11:03:48;51291.84;;;-146.10;83.22
12763;BME280;6445;52.490;13.378;2023-08-07T11:06:15;51611.88;;;-146.10;79.79
12763;BME280;6445;52.490;13.378;2023-08-07T11:08:40;51323.84;;;-146.10;84.36
12763;BME280;6445;52.490;13.378;2023-08-07T11:11:06;49802.03;;;-146.10;94.57
12763;BME280;6445;52.490;13.378;2023-08-07T11:13:32;43688.66;;;-146.10;100.00
12763;BME280;6445;52.490;13.378;2023-08-07T11:15:58;34894.88;;;-146.10;100.00
12763;BME280;6445;52.490;13.378;2023-08-07T11:18:24;23742.56;;;-146.10;100.00
12763;BME280;6445;52.490;13.378;2023-08-07T11:20:50;27732.81;;;-146.10;100.00
12763;BME280;6445;52.490;13.378;2023-08-07T11:23:15;33727.81;;;-146.10;100.00
12763;BME280;6445;52.490;13.378;2023-08-07T11:25:41;37164.22;;;-146.10;100.00
12763;BME280;6445;52.490;13.378;2023-08-07T11:28:06;37524.97;;;-146.10;100.00
12763;BME280;6445;52.490;13.378;2023-08-07T11:30:34;34233.63;;;-146.10;100.00
12763;BME280;6445;52.490;13.378;2023-08-07T11:33:00;29222.25;;;-146.10;100.00
12763;BME280;6445;52.490;13.378;2023-08-07T11:35:25;30031.84;;;-146.10;100.00
12763;BME280;6445;52.490;13.378;2023-08-07T11:37:51;34293.38;;;-146.10;100.00
12763;BME280;6445;52.490;13.378;2023-08-07T11:40:19;32473.53;;;-146.10;100.00
12763;BME280;6445;52.490;13.378;2023-08-07T11:42:44;22725.78;;;-146.10;100.00
12763;BME280;6445;52.490;13.378;2023-08-07T11:45:09;17907.66;;;-146.10;100.00
12763;BME280;6445;52.490;13.378;2023-08-07T11:47:35;15108.41;;;-146.10;100.00
12763;BME280;6445;52.490;13.378;2023-08-07T11:50:01;18593.88;;;-146.10;100.00
12763;BME280;6445;52.490;13.378;2023-08-07T11:52:27;21086.00;;;-146.10;100.00
12763;BME280;6445;52.490;13.378;2023-08-07T11:54:52;21822.44;;;-146.10;100.00
12763;BME280;6445;52.490;13.378;2023-08-07T11:57:19;34068.34;;;-146.10;100.00
12763;BME280;6445;52.490;13.378;2023-08-07T11:59:47;41347.72;;;-146.10;100.00
12763;BME280;6445;52.490;13.378;2023-08-07T12:02:13;46484.44;;;-146.10;99.45
12763;BME280;6445;52.490;13.378;2023-08-07T12:04:39;44058.00;;;-146.10;100.00
12763;BME280;6445;52.490;13.378;2023-08-07T12:07:05;41690.88;;;-146.10;100.00
12763;BME280;6445;52.490;13.378;2023-08-07T12:09:30;43528.97;;;-146.10;100.00
12763;BME280;6445;52.490;13.378;2023-08-07T12:11:57;44986.47;;;-146.10;100.00
12763;BME280;6445;52.490;13.378;2023-08-07T12:14:22;45685.44;;;-146.10;100.00
12763;BME280;6445;52.490;13.378;2023-08-07T12:16:48;46904.00;;;-146.10;98.43
12763;BME280;6445;52.490;13.378;2023-08-07T12:19:13;46464.47;;;-146.10;100.00
12763;BME280;6445;52.490;13.378;2023-08-07T12:21:40;43942.19;;;-146.10;100.00
12763;BME280;6445;52.490;13.378;2023-08-07T12:24:07;45000.44;;;-146.10;100.00
12763;BME280;6445;52.490;13.378;2023-08-07T12:26:33;43006.00;;;-146.10;100.00
12763;BME280;6445;52.490;13.378;2023-08-07T12:28:58;42728.56;;;-146.10;100.00
12763;BME280;6445;52.490;13.378;2023-08-07T12:31:23;44341.50;;;-146.10;100.00
12763;BME280;6445;52.490;13.378;2023-08-07T12:33:48;45445.78;;;-146.10;100.00